sensor_id;sensor_type;location;lat;lon;timestamp;P1;durP1;ratioP1;P2;durP2;ratioP2
61527;SDS011;47395;42.032;-8.634;2023-12-28T00:01:10;25.83;;;16.48;;
61527;SDS011;47395;42.032;-8.634;2023-12-28T00:03:12;26.58;;;15.90;;
61527;SDS011;47395;42.032;-8.634;2023-12-28T00:05:14;25.75;;;14.98;;
61527;SDS011;47395;42.032;-8.634;2023-12-28T00:07:15;27.40;;;16.20;;
61527;SDS011;47395;42.032;-8.634;2023-12-28T00:09:16;21.42;;;15.27;;
61527;SDS011;47395;42.032;-8.634;2023-12-28T00:11:17;27.63;;;15.30;;
61527;SDS011;47395;42.032;-8.634;2023-12-28T00:13:21;27.25;;;17.00;;
61527;SDS011;47395;42.032;-8.634;2023-12-28T00:15:32;29.67;;;16.48;;
61527;SDS011;47395;42.032;-8.634;2023-12-28T00:17:34;26.42;;;15.75;;
61527;SDS011;47395;42.032;-8.634;2023-12-28T00:19:35;23.92;;;15.15;;
61527;SDS011;47395;42.032;-8.634;2023-12-28T00:21:36;24.73;;;15.55;;
61527;SDS011;47395;42.032;-8.634;2023-12-28T00:23:37;23.40;;;15.93;;
61527;SDS011;47395;42.032;-8.634;2023-12-28T00:25:38;29.15;;;16.60;;
61527;SDS011;47395;42.032;-8.634;2023-12-28T00:27:40;21.00;;;14.55;;
61527;SDS011;47395;42.032;-8.634;2023-12-28T00:29:41;22.38;;;14.50;;
61527;SDS011;47395;42.032;-8.634;2023-12-28T00:31:44;20.67;;;14.05;;
61527;SDS011;47395;42.032;-8.634;2023-12-28T00:33:45;20.83;;;14.77;;
61527;SDS011;47395;42.032;-8.634;2023-12-28T00:35:51;20.15;;;14.40;;
61527;SDS011;47395;42.032;-8.634;2023-12-28T00:37:51;26.40;;;13.13;;
61527;SDS011;47395;42.032;-8.634;2023-12-28T00:39:55;15.70;;;12.40;;
61527;SDS011;47395;42.032;-8.634;2023-12-28T00:41:57;22.27;;;13.20;;
61527;SDS011;47395;42.032;-8.634;2023-12-28T00:43:58;20.05;;;12.05;;
61527;SDS011;47395;42.032;-8.634;2023-12-28T00:46:00;18.55;;;12.45;;
61527;SDS011;47395;42.032;-8.634;2023-12-28T00:48:02;20.55;;;12.95;;
61527;SDS011;47395;42.032;-8.634;2023-12-28T00:50:05;19.13;;;11.02;;
61527;SDS011;47395;42.032;-8.634;2023-12-28T00:52:07;31.50;;;12.02;;
61527;SDS011;47395;42.032;-8.634;2023-12-28T00:54:08;19.05;;;12.52;;
61527;SDS011;47395;42.032;-8.634;2023-12-28T00:56:09;17.65;;;11.88;;
61527;SDS011;47395;42.032;-8.634;2023-12-28T00:58:11;20.55;;;11.73;;
61527;SDS011;47395;42.032;-8.634;2023-12-28T01:00:14;16.55;;;11.95;;
61527;SDS011;47395;42.032;-8.634;2023-12-28T01:02:17;15.80;;;11.70;;
61527;SDS011;47395;42.032;-8.634;2023-12-28T01:04:19;25.17;;;12.48;;
61527;SDS011;47395;42.032;-8.634;2023-12-28T01:06:24;19.83;;;12.77;;
61527;SDS011;47395;42.032;-8.634;2023-12-28T01:08:32;13.82;;;11.00;;
61527;SDS011;47395;42.032;-8.634;2023-12-28T01:10:34;17.48;;;12.65;;
61527;SDS011;47395;42.032;-8.634;2023-12-28T01:12:37;14.85;;;12.55;;
61527;SDS011;47395;42.032;-8.634;2023-12-28T01:14:38;18.60;;;12.10;;
61527;SDS011;47395;42.032;-8.634;2023-12-28T01:16:39;18.83;;;13.35;;
61527;SDS011;47395;42.032;-8.634;2023-12-28T01:18:40;18.42;;;12.05;;
61527;SDS011;47395;42.032;-8.634;2023-12-28T01:20:41;17.05;;;11.93;;
61527;SDS011;47395;42.032;-8.634;2023-12-28T01:22:44;15.25;;;12.25;;
61527;SDS011;47395;42.032;-8.634;2023-12-28T01:24:48;16.33;;;11.48;;
61527;SDS011;47395;42.032;-8.634;2023-12-28T01:26:50;12.23;;;10.43;;
61527;SDS011;47395;42.032;-8.634;2023-12-28T01:28:51;18.23;;;12.27;;
61527;SDS011;47395;42.032;-8.634;2023-12-28T01:30:53;21.02;;;10.80;;
61527;SDS011;47395;42.032;-8.634;2023-12-28T01:32:55;14.80;;;11.23;;
61527;SDS011;47395;42.032;-8.634;2023-12-28T01:34:56;17.15;;;11.52;;
61527;SDS011;47395;42.032;-8.634;2023-12-28T01:36:57;14.18;;;10.30;;
61527;SDS011;47395;42.032;-8.634;2023-12-28T01:38:58;14.68;;;11.20;;
61527;SDS011;47395;42.032;-8.634;2023-12-28T01:40:59;18.45;;;11.85;;
61527;SDS011;47395;42.032;-8.634;2023-12-28T01:43:01;18.63;;;11.55;;
61527;SDS011;47395;42.032;-8.634;2023-12-28T01:45:03;14.75;;;10.85;;
61527;SDS011;47395;42.032;-8.634;2023-12-28T01:47:06;1.73;;;1.63;;
61527;SDS011;47395;42.032;-8.634;2023-12-28T01:49:09;0.80;;;0.80;;
61527;SDS011;47395;42.032;-8.634;2023-12-28T01:51:11;3.17;;;2.35;;
61527;SDS011;47395;42.032;-8.634;2023-12-28T01:53:12;0.75;;;0.75;;
61527;SDS011;47395;42.032;-8.634;2023-12-28T01:55:18;0.80;;;0.80;;
61527;SDS011;47395;42.032;-8.634;2023-12-28T01:57:23;0.63;;;0.63;;
61527;SDS011;47395;42.032;-8.634;2023-12-28T01:59:24;0.70;;;0.70;;
61527;SDS011;47395;42.032;-8.634;2023-12-28T02:01:27;0.80;;;0.80;;
61527;SDS011;47395;42.032;-8.634;2023-12-28T02:03:30;1.48;;;1.45;;
61527;SDS011;47395;42.032;-8.634;2023-12-28T02:05:33;0.55;;;0.55;;
61527;SDS011;47395;42.032;-8.634;2023-12-28T02:07:35;1.83;;;1.73;;
61527;SDS011;47395;42.032;-8.634;2023-12-28T02:09:37;0.70;;;0.70;;
61527;SDS011;47395;42.032;-8.634;2023-12-28T02:11:38;0.70;;;0.70;;
61527;SDS011;47395;42.032;-8.634;2023-12-28T02:13:39;0.60;;;0.60;;
61527;SDS011;47395;42.032;-8.634;2023-12-28T02:15:40;1.58;;;1.25;;
61527;SDS011;47395;42.032;-8.634;2023-12-28T02:17:50;1.80;;;1.70;;
61527;SDS011;47395;42.032;-8.634;2023-12-28T02:20:02;0.65;;;0.65;;
61527;SDS011;47395;42.032;-8.634;2023-12-28T02:22:07;1.88;;;1.80;;
61527;SDS011;47395;42.032;-8.634;2023-12-28T02:24:10;0.88;;;0.88;;
61527;SDS011;47395;42.032;-8.634;2023-12-28T02:26:12;0.70;;;0.70;;
61527;SDS011;47395;42.032;-8.634;2023-12-28T02:28:14;0.80;;;0.80;;
61527;SDS011;47395;42.032;-8.634;2023-12-28T02:30:17;0.75;;;0.75;;
61527;SDS011;47395;42.032;-8.634;2023-12-28T02:32:25;0.80;;;0.80;;
61527;SDS011;47395;42.032;-8.634;2023-12-28T02:34:37;1.15;;;1.15;;
61527;SDS011;47395;42.032;-8.634;2023-12-28T02:36:44;2.67;;;2.33;;
61527;SDS011;47395;42.032;-8.634;2023-12-28T02:38:49;0.60;;;0.60;;
61527;SDS011;47395;42.032;-8.634;2023-12-28T02:40:52;0.85;;;0.85;;
61527;SDS011;47395;42.032;-8.634;2023-12-28T02:42:55;0.70;;;0.70;;
61527;SDS011;47395;42.032;-8.634;2023-12-28T02:44:56;1.00;;;1.00;;
61527;SDS011;47395;42.032;-8.634;2023-12-28T02:46:59;0.50;;;0.50;;
61527;SDS011;47395;42.032;-8.634;2023-12-28T02:49:00;0.60;;;0.60;;
61527;SDS011;47395;42.032;-8.634;2023-12-28T02:51:01;0.60;;;0.60;;
61527;SDS011;47395;42.032;-8.634;2023-12-28T02:53:02;0.77;;;0.77;;
61527;SDS011;47395;42.032;-8.634;2023-12-28T02:55:03;0.90;;;0.90;;
61527;SDS011;47395;42.032;-8.634;2023-12-28T02:57:05;1.05;;;1.05;;
61527;SDS011;47395;42.032;-8.634;2023-12-28T02:59:06;0.90;;;0.90;;
61527;SDS011;47395;42.032;-8.634;2023-12-28T03:01:08;0.60;;;0.60;;
61527;SDS011;47395;42.032;-8.634;2023-12-28T03:03:09;0.50;;;0.50;;
61527;SDS011;47395;42.032;-8.634;2023-12-28T03:05:09;0.60;;;0.60;;
61527;SDS011;47395;42.032;-8.634;2023-12-28T03:07:11;0.85;;;0.85;;
61527;SDS011;47395;42.032;-8.634;2023-12-28T03:09:12;0.90;;;0.90;;
61527;SDS011;47395;42.032;-8.634;2023-12-28T03:11:13;0.60;;;0.60;;
61527;SDS011;47395;42.032;-8.634;2023-12-28T03:13:15;0.70;;;0.70;;
61527;SDS011;47395;42.032;-8.634;2023-12-28T03:15:16;0.60;;;0.60;;
61527;SDS011;47395;42.032;-8.634;2023-12-28T03:17:17;1.25;;;1.25;;
61527;SDS011;47395;42.032;-8.634;2023-12-28T03:19:18;1.05;;;1.05;;
61527;SDS011;47395;42.032;-8.634;2023-12-28T03:21:20;0.60;;;0.60;;
61527;SDS011;47395;42.032;-8.634;2023-12-28T03:23:21;10.02;;;0.80;;
61527;SDS011;47395;42.032;-8.634;2023-12-28T03:25:22;0.50;;;0.50;;
61527;SDS011;47395;42.032;-8.634;2023-12-28T03:27:23;0.63;;;0.63;;
61527;SDS011;47395;42.032;-8.634;2023-12-28T03:29:24;0.60;;;0.60;;
61527;SDS011;47395;42.032;-8.634;2023-12-28T03:31:25;1.02;;;1.02;;
61527;SDS011;47395;42.032;-8.634;2023-12-28T03:33:27;0.60;;;0.60;;
61527;SDS011;47395;42.032;-8.634;2023-12-28T03:35:28;0.50;;;0.50;;
61527;SDS011;47395;42.032;-8.634;2023-12-28T03:37:29;1.58;;;1.48;;
61527;SDS011;47395;42.032;-8.634;2023-12-28T03:39:30;0.60;;;0.60;;
61527;SDS011;47395;42.032;-8.634;2023-12-28T03:41:31;0.55;;;0.55;;
61527;SDS011;47395;42.032;-8.634;2023-12-28T03:43:32;0.68;;;0.68;;
61527;SDS011;47395;42.032;-8.634;2023-12-28T03:45:33;0.88;;;0.88;;
61527;SDS011;47395;42.032;-8.634;2023-12-28T03:47:34;3.20;;;2.55;;
61527;SDS011;47395;42.032;-8.634;2023-12-28T03:49:35;0.65;;;0.65;;
61527;SDS011;47395;42.032;-8.634;2023-12-28T03:51:38;0.60;;;0.60;;
61527;SDS011;47395;42.032;-8.634;2023-12-28T03:53:40;0.80;;;0.80;;
61527;SDS011;47395;42.032;-8.634;2023-12-28T03:55:43;0.55;;;0.55;;
61527;SDS011;47395;42.032;-8.634;2023-12-28T03:57:44;0.52;;;0.52;;
61527;SDS011;47395;42.032;-8.634;2023-12-28T03:59:50;0.70;;;0.70;;
61527;SDS011;47395;42.032;-8.634;2023-12-28T04:01:51;1.60;;;1.60;;
61527;SDS011;47395;42.032;-8.634;2023-12-28T04:03:52;0.77;;;0.77;;
61527;SDS011;47395;42.032;-8.634;2023-12-28T04:05:55;0.98;;;0.98;;
61527;SDS011;47395;42.032;-8.634;2023-12-28T04:07:56;0.93;;;0.93;;
61527;SDS011;47395;42.032;-8.634;2023-12-28T04:09:57;0.60;;;0.60;;
61527;SDS011;47395;42.032;-8.634;2023-12-28T04:11:59;0.68;;;0.68;;
61527;SDS011;47395;42.032;-8.634;2023-12-28T04:14:01;1.65;;;1.08;;
61527;SDS011;47395;42.032;-8.634;2023-12-28T04:16:02;0.75;;;0.75;;
61527;SDS011;47395;42.032;-8.634;2023-12-28T04:18:05;0.60;;;0.60;;
61527;SDS011;47395;42.032;-8.634;2023-12-28T04:20:07;0.60;;;0.60;;
61527;SDS011;47395;42.032;-8.634;2023-12-28T04:22:11;0.52;;;0.52;;
61527;SDS011;47395;42.032;-8.634;2023-12-28T04:24:12;0.50;;;0.50;;
61527;SDS011;47395;42.032;-8.634;2023-12-28T04:26:17;0.70;;;0.70;;
61527;SDS011;47395;42.032;-8.634;2023-12-28T04:28:19;0.68;;;0.68;;
61527;SDS011;47395;42.032;-8.634;2023-12-28T04:30:20;1.00;;;1.00;;
61527;SDS011;47395;42.032;-8.634;2023-12-28T04:32:24;0.60;;;0.60;;
61527;SDS011;47395;42.032;-8.634;2023-12-28T04:34:26;0.70;;;0.70;;
61527;SDS011;47395;42.032;-8.634;2023-12-28T04:36:28;0.60;;;0.60;;
61527;SDS011;47395;42.032;-8.634;2023-12-28T04:38:32;0.50;;;0.50;;
61527;SDS011;47395;42.032;-8.634;2023-12-28T04:40:33;0.50;;;0.50;;
61527;SDS011;47395;42.032;-8.634;2023-12-28T04:42:36;0.73;;;0.73;;
61527;SDS011;47395;42.032;-8.634;2023-12-28T04:44:38;0.55;;;0.55;;
61527;SDS011;47395;42.032;-8.634;2023-12-28T04:46:41;0.80;;;0.80;;
61527;SDS011;47395;42.032;-8.634;2023-12-28T04:48:44;0.60;;;0.60;;
61527;SDS011;47395;42.032;-8.634;2023-12-28T04:50:47;0.50;;;0.50;;
61527;SDS011;47395;42.032;-8.634;2023-12-28T04:52:51;0.98;;;0.98;;
61527;SDS011;47395;42.032;-8.634;2023-12-28T04:54:52;0.95;;;0.95;;
61527;SDS011;47395;42.032;-8.634;2023-12-28T04:56:56;1.13;;;1.13;;
61527;SDS011;47395;42.032;-8.634;2023-12-28T04:58:58;2.78;;;2.55;;
61527;SDS011;47395;42.032;-8.634;2023-12-28T05:01:01;0.75;;;0.75;;
61527;SDS011;47395;42.032;-8.634;2023-12-28T05:05:27;0.82;;;0.82;;
61527;SDS011;47395;42.032;-8.634;2023-12-28T05:07:28;0.77;;;0.77;;
61527;SDS011;47395;42.032;-8.634;2023-12-28T05:09:29;0.60;;;0.60;;
61527;SDS011;47395;42.032;-8.634;2023-12-28T05:11:30;1.00;;;1.00;;
61527;SDS011;47395;42.032;-8.634;2023-12-28T05:13:31;0.90;;;0.90;;
61527;SDS011;47395;42.032;-8.634;2023-12-28T05:15:32;1.00;;;1.00;;
61527;SDS011;47395;42.032;-8.634;2023-12-28T05:17:33;0.60;;;0.60;;
61527;SDS011;47395;42.032;-8.634;2023-12-28T05:19:34;0.70;;;0.70;;
61527;SDS011;47395;42.032;-8.634;2023-12-28T05:21:38;0.50;;;0.50;;
61527;SDS011;47395;42.032;-8.634;2023-12-28T05:23:40;0.50;;;0.50;;
61527;SDS011;47395;42.032;-8.634;2023-12-28T05:25:42;0.68;;;0.68;;
61527;SDS011;47395;42.032;-8.634;2023-12-28T05:27:44;0.57;;;0.57;;
61527;SDS011;47395;42.032;-8.634;2023-12-28T05:29:51;0.55;;;0.55;;
61527;SDS011;47395;42.032;-8.634;2023-12-28T05:31:56;0.50;;;0.50;;
61527;SDS011;47395;42.032;-8.634;2023-12-28T05:33:57;0.80;;;0.80;;
61527;SDS011;47395;42.032;-8.634;2023-12-28T05:35:58;0.70;;;0.70;;
61527;SDS011;47395;42.032;-8.634;2023-12-28T05:38:07;0.90;;;0.90;;
61527;SDS011;47395;42.032;-8.634;2023-12-28T05:40:08;0.95;;;0.95;;
61527;SDS011;47395;42.032;-8.634;2023-12-28T05:42:11;0.60;;;0.60;;
61527;SDS011;47395;42.032;-8.634;2023-12-28T05:44:13;0.65;;;0.65;;
61527;SDS011;47395;42.032;-8.634;2023-12-28T05:46:14;0.88;;;0.88;;
61527;SDS011;47395;42.032;-8.634;2023-12-28T05:48:16;0.63;;;0.63;;
61527;SDS011;47395;42.032;-8.634;2023-12-28T05:50:17;0.82;;;0.82;;
61527;SDS011;47395;42.032;-8.634;2023-12-28T05:52:18;0.60;;;0.60;;
61527;SDS011;47395;42.032;-8.634;2023-12-28T05:54:20;0.60;;;0.60;;
61527;SDS011;47395;42.032;-8.634;2023-12-28T05:56:21;0.60;;;0.60;;
61527;SDS011;47395;42.032;-8.634;2023-12-28T05:58:24;0.45;;;0.45;;
61527;SDS011;47395;42.032;-8.634;2023-12-28T06:00:28;1.15;;;1.15;;
61527;SDS011;47395;42.032;-8.634;2023-12-28T06:02:30;0.88;;;0.88;;
61527;SDS011;47395;42.032;-8.634;2023-12-28T06:04:32;1.00;;;1.00;;
61527;SDS011;47395;42.032;-8.634;2023-12-28T06:06:36;0.77;;;0.77;;
61527;SDS011;47395;42.032;-8.634;2023-12-28T06:08:37;0.57;;;0.57;;
61527;SDS011;47395;42.032;-8.634;2023-12-28T06:10:39;0.70;;;0.70;;
61527;SDS011;47395;42.032;-8.634;2023-12-28T06:12:41;0.60;;;0.60;;
61527;SDS011;47395;42.032;-8.634;2023-12-28T06:14:42;0.68;;;0.68;;
61527;SDS011;47395;42.032;-8.634;2023-12-28T06:16:43;0.57;;;0.57;;
61527;SDS011;47395;42.032;-8.634;2023-12-28T06:18:46;0.60;;;0.60;;
61527;SDS011;47395;42.032;-8.634;2023-12-28T06:20:48;0.52;;;0.52;;
61527;SDS011;47395;42.032;-8.634;2023-12-28T06:22:49;0.70;;;0.70;;
61527;SDS011;47395;42.032;-8.634;2023-12-28T06:24:50;0.70;;;0.70;;
61527;SDS011;47395;42.032;-8.634;2023-12-28T06:26:55;1.60;;;1.50;;
61527;SDS011;47395;42.032;-8.634;2023-12-28T06:28:57;0.95;;;0.95;;
61527;SDS011;47395;42.032;-8.634;2023-12-28T06:30:58;0.52;;;0.52;;
61527;SDS011;47395;42.032;-8.634;2023-12-28T06:33:03;0.70;;;0.70;;
61527;SDS011;47395;42.032;-8.634;2023-12-28T06:35:05;0.60;;;0.60;;
61527;SDS011;47395;42.032;-8.634;2023-12-28T06:37:06;0.60;;;0.60;;
61527;SDS011;47395;42.032;-8.634;2023-12-28T06:39:08;0.50;;;0.50;;
61527;SDS011;47395;42.032;-8.634;2023-12-28T06:41:12;0.70;;;0.70;;
61527;SDS011;47395;42.032;-8.634;2023-12-28T06:43:13;0.63;;;0.63;;
61527;SDS011;47395;42.032;-8.634;2023-12-28T06:45:15;1.48;;;1.38;;
61527;SDS011;47395;42.032;-8.634;2023-12-28T06:47:16;1.20;;;1.20;;
61527;SDS011;47395;42.032;-8.634;2023-12-28T06:49:17;0.60;;;0.60;;
61527;SDS011;47395;42.032;-8.634;2023-12-28T06:51:19;0.50;;;0.50;;
61527;SDS011;47395;42.032;-8.634;2023-12-28T06:53:23;0.70;;;0.70;;
61527;SDS011;47395;42.032;-8.634;2023-12-28T06:55:24;0.60;;;0.60;;
61527;SDS011;47395;42.032;-8.634;2023-12-28T06:57:25;0.50;;;0.50;;
61527;SDS011;47395;42.032;-8.634;2023-12-28T06:59:26;0.70;;;0.70;;
61527;SDS011;47395;42.032;-8.634;2023-12-28T07:01:27;1.08;;;1.08;;
61527;SDS011;47395;42.032;-8.634;2023-12-28T07:03:28;0.52;;;0.52;;
61527;SDS011;47395;42.032;-8.634;2023-12-28T07:05:33;0.50;;;0.50;;
61527;SDS011;47395;42.032;-8.634;2023-12-28T07:07:35;0.50;;;0.50;;
61527;SDS011;47395;42.032;-8.634;2023-12-28T07:09:40;0.85;;;0.85;;
61527;SDS011;47395;42.032;-8.634;2023-12-28T07:11:43;0.57;;;0.57;;
61527;SDS011;47395;42.032;-8.634;2023-12-28T07:13:45;0.50;;;0.50;;
61527;SDS011;47395;42.032;-8.634;2023-12-28T07:15:47;0.60;;;0.60;;
61527;SDS011;47395;42.032;-8.634;2023-12-28T07:17:49;0.55;;;0.55;;
61527;SDS011;47395;42.032;-8.634;2023-12-28T07:19:49;0.50;;;0.50;;
61527;SDS011;47395;42.032;-8.634;2023-12-28T07:21:50;0.47;;;0.47;;
61527;SDS011;47395;42.032;-8.634;2023-12-28T07:23:51;0.85;;;0.85;;
61527;SDS011;47395;42.032;-8.634;2023-12-28T07:25:54;0.50;;;0.50;;
61527;SDS011;47395;42.032;-8.634;2023-12-28T07:27:56;0.50;;;0.50;;
61527;SDS011;47395;42.032;-8.634;2023-12-28T07:29:57;0.60;;;0.60;;
61527;SDS011;47395;42.032;-8.634;2023-12-28T07:31:58;0.50;;;0.50;;
61527;SDS011;47395;42.032;-8.634;2023-12-28T07:33:59;0.73;;;0.73;;
61527;SDS011;47395;42.032;-8.634;2023-12-28T07:36:03;0.47;;;0.47;;
61527;SDS011;47395;42.032;-8.634;2023-12-28T07:38:06;0.73;;;0.73;;
61527;SDS011;47395;42.032;-8.634;2023-12-28T07:42:31;0.60;;;0.60;;
61527;SDS011;47395;42.032;-8.634;2023-12-28T07:44:33;0.50;;;0.50;;
61527;SDS011;47395;42.032;-8.634;2023-12-28T07:46:34;0.50;;;0.50;;
61527;SDS011;47395;42.032;-8.634;2023-12-28T07:48:35;0.60;;;0.60;;
61527;SDS011;47395;42.032;-8.634;2023-12-28T07:50:36;4.47;;;0.93;;
61527;SDS011;47395;42.032;-8.634;2023-12-28T07:52:38;0.77;;;0.77;;
61527;SDS011;47395;42.032;-8.634;2023-12-28T07:54:39;0.50;;;0.50;;
61527;SDS011;47395;42.032;-8.634;2023-12-28T07:56:40;0.60;;;0.60;;
61527;SDS011;47395;42.032;-8.634;2023-12-28T07:58:42;0.60;;;0.60;;
61527;SDS011;47395;42.032;-8.634;2023-12-28T08:00:43;0.68;;;0.68;;
61527;SDS011;47395;42.032;-8.634;2023-12-28T08:02:44;0.50;;;0.50;;
61527;SDS011;47395;42.032;-8.634;2023-12-28T08:04:45;0.50;;;0.50;;
61527;SDS011;47395;42.032;-8.634;2023-12-28T08:06:47;0.50;;;0.50;;
61527;SDS011;47395;42.032;-8.634;2023-12-28T08:08:48;0.82;;;0.82;;
61527;SDS011;47395;42.032;-8.634;2023-12-28T08:10:49;0.60;;;0.60;;
61527;SDS011;47395;42.032;-8.634;2023-12-28T08:12:51;0.50;;;0.50;;
61527;SDS011;47395;42.032;-8.634;2023-12-28T08:14:52;0.50;;;0.50;;
61527;SDS011;47395;42.032;-8.634;2023-12-28T08:16:54;0.50;;;0.50;;
61527;SDS011;47395;42.032;-8.634;2023-12-28T08:18:55;0.60;;;0.60;;
61527;SDS011;47395;42.032;-8.634;2023-12-28T08:20:56;0.57;;;0.57;;
61527;SDS011;47395;42.032;-8.634;2023-12-28T08:22:57;0.60;;;0.60;;
61527;SDS011;47395;42.032;-8.634;2023-12-28T08:24:58;2.13;;;0.82;;
61527;SDS011;47395;42.032;-8.634;2023-12-28T08:26:59;0.50;;;0.50;;
61527;SDS011;47395;42.032;-8.634;2023-12-28T08:29:03;0.50;;;0.50;;
61527;SDS011;47395;42.032;-8.634;2023-12-28T08:31:05;0.60;;;0.60;;
61527;SDS011;47395;42.032;-8.634;2023-12-28T08:33:07;0.60;;;0.60;;
61527;SDS011;47395;42.032;-8.634;2023-12-28T08:35:08;0.95;;;0.95;;
61527;SDS011;47395;42.032;-8.634;2023-12-28T08:37:10;8.95;;;1.17;;
61527;SDS011;47395;42.032;-8.634;2023-12-28T08:39:11;0.63;;;0.63;;
61527;SDS011;47395;42.032;-8.634;2023-12-28T08:41:21;0.55;;;0.55;;
61527;SDS011;47395;42.032;-8.634;2023-12-28T08:43:25;0.80;;;0.80;;
61527;SDS011;47395;42.032;-8.634;2023-12-28T08:45:28;0.65;;;0.65;;
61527;SDS011;47395;42.032;-8.634;2023-12-28T08:47:29;0.50;;;0.50;;
61527;SDS011;47395;42.032;-8.634;2023-12-28T08:49:30;0.60;;;0.60;;
61527;SDS011;47395;42.032;-8.634;2023-12-28T08:51:31;0.50;;;0.50;;
61527;SDS011;47395;42.032;-8.634;2023-12-28T08:53:32;0.90;;;0.90;;
61527;SDS011;47395;42.032;-8.634;2023-12-28T08:55:33;0.50;;;0.50;;
61527;SDS011;47395;42.032;-8.634;2023-12-28T08:57:35;0.82;;;0.82;;
61527;SDS011;47395;42.032;-8.634;2023-12-28T08:59:36;1.00;;;1.00;;
61527;SDS011;47395;42.032;-8.634;2023-12-28T09:01:37;0.50;;;0.50;;
61527;SDS011;47395;42.032;-8.634;2023-12-28T09:03:38;0.57;;;0.57;;
61527;SDS011;47395;42.032;-8.634;2023-12-28T09:05:40;0.50;;;0.50;;
61527;SDS011;47395;42.032;-8.634;2023-12-28T09:07:41;0.70;;;0.70;;
61527;SDS011;47395;42.032;-8.634;2023-12-28T09:09:46;1.30;;;1.30;;
61527;SDS011;47395;42.032;-8.634;2023-12-28T09:11:47;0.55;;;0.55;;
61527;SDS011;47395;42.032;-8.634;2023-12-28T09:13:49;0.60;;;0.60;;
61527;SDS011;47395;42.032;-8.634;2023-12-28T09:15:53;0.75;;;0.75;;
61527;SDS011;47395;42.032;-8.634;2023-12-28T09:17:55;0.70;;;0.70;;
61527;SDS011;47395;42.032;-8.634;2023-12-28T09:19:56;0.75;;;0.75;;
61527;SDS011;47395;42.032;-8.634;2023-12-28T09:21:58;0.50;;;0.50;;
61527;SDS011;47395;42.032;-8.634;2023-12-28T09:24:01;0.50;;;0.50;;
61527;SDS011;47395;42.032;-8.634;2023-12-28T09:26:04;0.60;;;0.60;;
61527;SDS011;47395;42.032;-8.634;2023-12-28T09:28:07;0.50;;;0.50;;
61527;SDS011;47395;42.032;-8.634;2023-12-28T09:30:08;0.50;;;0.50;;
61527;SDS011;47395;42.032;-8.634;2023-12-28T09:32:10;0.60;;;0.60;;
61527;SDS011;47395;42.032;-8.634;2023-12-28T09:34:13;0.75;;;0.75;;
61527;SDS011;47395;42.032;-8.634;2023-12-28T09:36:14;0.50;;;0.50;;
61527;SDS011;47395;42.032;-8.634;2023-12-28T09:38:18;0.50;;;0.50;;
61527;SDS011;47395;42.032;-8.634;2023-12-28T09:40:20;0.45;;;0.45;;
61527;SDS011;47395;42.032;-8.634;2023-12-28T09:42:29;0.60;;;0.60;;
61527;SDS011;47395;42.032;-8.634;2023-12-28T09:44:33;0.60;;;0.60;;
61527;SDS011;47395;42.032;-8.634;2023-12-28T09:46:43;0.50;;;0.50;;
61527;SDS011;47395;42.032;-8.634;2023-12-28T09:48:49;0.60;;;0.60;;
61527;SDS011;47395;42.032;-8.634;2023-12-28T09:50:50;0.50;;;0.50;;
61527;SDS011;47395;42.032;-8.634;2023-12-28T09:52:54;0.80;;;0.80;;
61527;SDS011;47395;42.032;-8.634;2023-12-28T09:54:55;0.50;;;0.50;;
61527;SDS011;47395;42.032;-8.634;2023-12-28T09:57:00;1.48;;;1.48;;
61527;SDS011;47395;42.032;-8.634;2023-12-28T09:59:03;1.55;;;0.60;;
61527;SDS011;47395;42.032;-8.634;2023-12-28T10:01:06;1.40;;;1.30;;
61527;SDS011;47395;42.032;-8.634;2023-12-28T10:03:09;0.50;;;0.50;;
61527;SDS011;47395;42.032;-8.634;2023-12-28T10:05:16;1.23;;;1.23;;
61527;SDS011;47395;42.032;-8.634;2023-12-28T10:07:18;0.85;;;0.85;;
61527;SDS011;47395;42.032;-8.634;2023-12-28T10:09:19;0.50;;;0.50;;
61527;SDS011;47395;42.032;-8.634;2023-12-28T10:11:21;0.50;;;0.50;;
61527;SDS011;47395;42.032;-8.634;2023-12-28T10:13:24;0.50;;;0.50;;
61527;SDS011;47395;42.032;-8.634;2023-12-28T10:15:27;0.60;;;0.60;;
61527;SDS011;47395;42.032;-8.634;2023-12-28T10:17:28;0.60;;;0.60;;
61527;SDS011;47395;42.032;-8.634;2023-12-28T10:19:28;0.50;;;0.50;;
61527;SDS011;47395;42.032;-8.634;2023-12-28T10:21:29;0.73;;;0.73;;
61527;SDS011;47395;42.032;-8.634;2023-12-28T10:23:32;0.50;;;0.50;;
61527;SDS011;47395;42.032;-8.634;2023-12-28T10:25:33;0.60;;;0.60;;
61527;SDS011;47395;42.032;-8.634;2023-12-28T10:27:37;0.60;;;0.60;;
61527;SDS011;47395;42.032;-8.634;2023-12-28T10:29:40;0.50;;;0.50;;
61527;SDS011;47395;42.032;-8.634;2023-12-28T10:31:42;0.45;;;0.45;;
61527;SDS011;47395;42.032;-8.634;2023-12-28T10:33:44;0.63;;;0.63;;
61527;SDS011;47395;42.032;-8.634;2023-12-28T10:35:45;0.50;;;0.50;;
61527;SDS011;47395;42.032;-8.634;2023-12-28T10:37:46;2.45;;;2.25;;
61527;SDS011;47395;42.032;-8.634;2023-12-28T10:39:55;0.45;;;0.45;;
61527;SDS011;47395;42.032;-8.634;2023-12-28T10:41:56;0.55;;;0.55;;
61527;SDS011;47395;42.032;-8.634;2023-12-28T10:44:04;1.83;;;1.65;;
61527;SDS011;47395;42.032;-8.634;2023-12-28T10:46:06;0.55;;;0.55;;
61527;SDS011;47395;42.032;-8.634;2023-12-28T10:48:10;0.50;;;0.50;;
61527;SDS011;47395;42.032;-8.634;2023-12-28T10:50:14;1.02;;;1.02;;
61527;SDS011;47395;42.032;-8.634;2023-12-28T10:52:21;0.77;;;0.77;;
61527;SDS011;47395;42.032;-8.634;2023-12-28T10:56:54;0.50;;;0.50;;
61527;SDS011;47395;42.032;-8.634;2023-12-28T10:59:09;0.50;;;0.50;;
61527;SDS011;47395;42.032;-8.634;2023-12-28T11:01:26;2.22;;;1.45;;
61527;SDS011;47395;42.032;-8.634;2023-12-28T11:03:34;0.50;;;0.50;;
61527;SDS011;47395;42.032;-8.634;2023-12-28T11:05:40;0.85;;;0.85;;
61527;SDS011;47395;42.032;-8.634;2023-12-28T11:07:45;0.65;;;0.65;;
61527;SDS011;47395;42.032;-8.634;2023-12-28T11:09:50;1.15;;;1.15;;
61527;SDS011;47395;42.032;-8.634;2023-12-28T11:11:55;0.60;;;0.60;;
61527;SDS011;47395;42.032;-8.634;2023-12-28T11:14:02;0.50;;;0.50;;
61527;SDS011;47395;42.032;-8.634;2023-12-28T11:16:04;1.20;;;1.20;;
61527;SDS011;47395;42.032;-8.634;2023-12-28T11:18:06;1.23;;;1.13;;
61527;SDS011;47395;42.032;-8.634;2023-12-28T11:20:08;0.85;;;0.85;;
61527;SDS011;47395;42.032;-8.634;2023-12-28T11:22:13;0.70;;;0.70;;
61527;SDS011;47395;42.032;-8.634;2023-12-28T11:24:16;1.08;;;1.08;;
61527;SDS011;47395;42.032;-8.634;2023-12-28T11:26:21;1.67;;;1.58;;
61527;SDS011;47395;42.032;-8.634;2023-12-28T11:28:23;0.50;;;0.50;;
61527;SDS011;47395;42.032;-8.634;2023-12-28T11:30:26;0.93;;;0.88;;
61527;SDS011;47395;42.032;-8.634;2023-12-28T11:32:28;0.63;;;0.63;;
61527;SDS011;47395;42.032;-8.634;2023-12-28T11:34:32;0.50;;;0.50;;
61527;SDS011;47395;42.032;-8.634;2023-12-28T11:36:38;0.60;;;0.60;;
61527;SDS011;47395;42.032;-8.634;2023-12-28T11:38:45;0.70;;;0.70;;
61527;SDS011;47395;42.032;-8.634;2023-12-28T11:40:50;0.70;;;0.70;;
61527;SDS011;47395;42.032;-8.634;2023-12-28T11:42:52;0.73;;;0.73;;
61527;SDS011;47395;42.032;-8.634;2023-12-28T11:44:55;0.52;;;0.52;;
61527;SDS011;47395;42.032;-8.634;2023-12-28T11:46:57;0.60;;;0.60;;
61527;SDS011;47395;42.032;-8.634;2023-12-28T11:49:07;0.50;;;0.50;;
61527;SDS011;47395;42.032;-8.634;2023-12-28T11:51:11;0.60;;;0.60;;
61527;SDS011;47395;42.032;-8.634;2023-12-28T11:53:13;0.63;;;0.63;;
61527;SDS011;47395;42.032;-8.634;2023-12-28T11:55:20;0.90;;;0.90;;
61527;SDS011;47395;42.032;-8.634;2023-12-28T11:57:24;1.65;;;1.20;;
61527;SDS011;47395;42.032;-8.634;2023-12-28T11:59:25;0.47;;;0.47;;
61527;SDS011;47395;42.032;-8.634;2023-12-28T12:01:27;0.77;;;0.77;;
61527;SDS011;47395;42.032;-8.634;2023-12-28T12:03:29;0.73;;;0.73;;
61527;SDS011;47395;42.032;-8.634;2023-12-28T12:05:30;0.80;;;0.80;;
61527;SDS011;47395;42.032;-8.634;2023-12-28T12:07:32;0.70;;;0.70;;
61527;SDS011;47395;42.032;-8.634;2023-12-28T12:09:34;0.60;;;0.60;;
61527;SDS011;47395;42.032;-8.634;2023-12-28T12:11:36;1.25;;;1.25;;